createdAt,value
2019-03-15T00:02:16.597Z,2.70
2019-03-15T00:04:50.000Z,2.60
2019-03-15T00:07:23.694Z,2.27
2019-03-15T00:09:57.099Z,2.80
2019-03-15T00:12:30.533Z,2.30
2019-03-15T00:15:06.196Z,2.50
2019-03-15T00:17:39.616Z,2.40
2019-03-15T00:20:13.476Z,2.70
2019-03-15T00:22:46.900Z,2.50
2019-03-15T00:25:39.652Z,2.93
2019-03-15T00:28:13.085Z,2.30
2019-03-15T00:30:46.495Z,2.63
2019-03-15T00:33:19.920Z,2.57
2019-03-15T00:35:53.337Z,2.50
2019-03-15T00:38:26.763Z,2.90
2019-03-15T00:41:00.191Z,2.87
2019-03-15T00:43:33.607Z,2.47
2019-03-15T00:46:07.032Z,2.50
2019-03-15T00:48:40.447Z,3.00
2019-03-15T00:51:13.877Z,2.40
2019-03-15T00:53:47.287Z,2.43
2019-03-15T00:56:20.721Z,2.33
2019-03-15T00:58:54.131Z,2.30
2019-03-15T01:01:42.614Z,2.53
2019-03-15T01:04:16.018Z,2.73
2019-03-15T01:06:49.452Z,2.43
2019-03-15T01:09:22.864Z,2.43
2019-03-15T01:11:56.292Z,2.60
2019-03-15T01:14:29.700Z,2.63
2019-03-15T01:17:03.130Z,2.63
2019-03-15T01:19:36.662Z,2.60
2019-03-15T01:22:10.147Z,2.60
2019-03-15T01:24:43.561Z,2.73
2019-03-15T01:27:16.983Z,2.60
2019-03-15T01:29:50.406Z,2.33
2019-03-15T01:32:23.835Z,2.80
2019-03-15T01:34:57.259Z,3.00
2019-03-15T01:37:30.688Z,2.40
2019-03-15T01:40:05.743Z,3.30
2019-03-15T01:42:39.170Z,2.77
2019-03-15T01:45:12.589Z,3.10
2019-03-15T01:47:46.024Z,2.70
2019-03-15T01:50:19.440Z,2.77
2019-03-15T01:52:52.874Z,2.83
2019-03-15T01:55:26.351Z,2.83
2019-03-15T01:57:59.789Z,3.20
2019-03-15T02:00:33.192Z,2.80
2019-03-15T02:03:06.623Z,2.73
2019-03-15T02:05:40.035Z,2.97
2019-03-15T02:08:13.468Z,2.77
2019-03-15T02:10:46.882Z,3.30
2019-03-15T02:13:20.335Z,2.80
2019-03-15T02:15:53.743Z,2.90
2019-03-15T02:18:27.172Z,2.90
2019-03-15T02:21:00.583Z,3.33
2019-03-15T02:23:34.008Z,3.00
2019-03-15T02:26:07.419Z,3.00
2019-03-15T02:28:40.847Z,2.77
2019-03-15T02:31:14.273Z,3.17
2019-03-15T02:33:47.697Z,3.37
2019-03-15T02:36:21.099Z,3.27
2019-03-15T02:38:54.520Z,2.60
2019-03-15T02:41:27.935Z,3.40
2019-03-15T02:44:01.374Z,3.03
2019-03-15T02:46:34.775Z,2.80
2019-03-15T02:49:08.438Z,3.30
2019-03-15T02:51:42.084Z,2.90
2019-03-15T02:54:15.515Z,2.97
2019-03-15T02:56:48.919Z,3.77
2019-03-15T02:59:22.358Z,2.80
2019-03-15T03:01:55.768Z,2.93
2019-03-15T03:04:29.197Z,3.20
2019-03-15T03:07:02.614Z,3.17
2019-03-15T03:09:36.057Z,2.80
2019-03-15T03:12:09.532Z,3.13
2019-03-15T03:14:42.960Z,2.63
2019-03-15T03:17:16.388Z,2.73
2019-03-15T03:19:49.828Z,3.13
2019-03-15T03:22:23.325Z,3.57
2019-03-15T03:24:56.727Z,3.00
2019-03-15T03:27:30.159Z,3.43
2019-03-15T03:30:04.896Z,3.10
2019-03-15T03:32:38.336Z,3.30
2019-03-15T03:35:12.365Z,3.10
2019-03-15T03:37:46.221Z,3.20
2019-03-15T03:40:20.537Z,3.40
2019-03-15T03:42:54.757Z,3.20
2019-03-15T03:45:28.172Z,3.73
2019-03-15T03:48:01.617Z,3.53
2019-03-15T03:50:35.201Z,3.17
2019-03-15T03:53:08.704Z,3.90
2019-03-15T03:55:42.209Z,3.77
2019-03-15T03:58:15.700Z,3.30
2019-03-15T04:00:49.115Z,3.33
2019-03-15T04:03:22.539Z,3.20
2019-03-15T04:05:56.056Z,3.53
2019-03-15T04:08:29.487Z,3.30
2019-03-15T04:11:02.898Z,3.40
2019-03-15T04:13:36.319Z,3.43
2019-03-15T04:16:09.747Z,3.30
2019-03-15T04:18:43.231Z,3.43
2019-03-15T04:21:16.656Z,3.17
2019-03-15T04:23:50.089Z,3.27
2019-03-15T04:26:23.509Z,3.07
2019-03-15T04:28:57.241Z,3.10
2019-03-15T04:31:30.942Z,3.40
2019-03-15T04:34:04.359Z,3.10
2019-03-15T04:36:37.769Z,3.43
2019-03-15T04:39:13.768Z,3.00
2019-03-15T04:41:46.344Z,3.30
2019-03-15T04:44:19.757Z,3.60
2019-03-15T04:46:53.178Z,3.43
2019-03-15T04:49:26.615Z,3.40
2019-03-15T04:52:00.018Z,3.70
2019-03-15T04:54:33.452Z,3.50
2019-03-15T04:57:06.865Z,3.43
2019-03-15T04:59:40.291Z,3.63
2019-03-15T05:02:13.707Z,3.70
2019-03-15T05:04:47.141Z,3.47
2019-03-15T05:07:20.558Z,3.37
2019-03-15T05:09:53.983Z,3.80
2019-03-15T05:12:27.418Z,3.33
2019-03-15T05:15:00.836Z,3.93
2019-03-15T05:17:34.261Z,4.17
2019-03-15T05:20:09.224Z,3.93
2019-03-15T05:22:42.639Z,3.80
2019-03-15T05:25:16.078Z,3.87
2019-03-15T05:27:49.492Z,3.70
2019-03-15T05:30:22.920Z,3.80
2019-03-15T05:32:56.342Z,4.00
2019-03-15T05:35:29.774Z,3.77
2019-03-15T05:38:03.175Z,3.60
2019-03-15T05:40:36.591Z,3.90
2019-03-15T05:43:10.003Z,3.70
2019-03-15T05:45:43.428Z,3.83
2019-03-15T05:48:16.848Z,3.37
2019-03-15T05:50:50.504Z,3.77
2019-03-15T05:53:23.915Z,3.77
2019-03-15T05:55:57.347Z,3.87
2019-03-15T05:58:33.721Z,4.00
2019-03-15T06:01:07.208Z,4.20
2019-03-15T06:03:48.480Z,3.90
2019-03-15T06:06:15.812Z,4.30
2019-03-15T06:08:49.240Z,3.90
2019-03-15T06:11:22.740Z,4.00
2019-03-15T06:13:56.207Z,4.10
2019-03-15T06:16:29.635Z,4.13
2019-03-15T06:19:03.075Z,3.70
2019-03-15T06:21:36.489Z,4.10
2019-03-15T06:24:10.033Z,3.60
2019-03-15T06:26:43.487Z,3.93
2019-03-15T06:29:16.945Z,4.10
2019-03-15T06:31:50.384Z,3.93
2019-03-15T06:34:23.804Z,3.97
2019-03-15T06:36:57.251Z,4.30
2019-03-15T06:39:30.697Z,3.80
2019-03-15T06:42:04.091Z,4.20
2019-03-15T06:44:37.907Z,3.83
2019-03-15T06:47:11.461Z,3.70
2019-03-15T06:49:44.891Z,3.57
2019-03-15T06:52:18.308Z,3.90
2019-03-15T06:54:51.731Z,4.43
2019-03-15T06:57:25.156Z,4.13
2019-03-15T06:59:59.679Z,3.77
2019-03-15T07:02:33.389Z,3.80
2019-03-15T07:05:08.155Z,4.60
2019-03-15T07:07:41.597Z,3.80
2019-03-15T07:10:15.247Z,4.17
2019-03-15T07:12:48.672Z,4.50
2019-03-15T07:15:22.119Z,4.03
2019-03-15T07:17:55.538Z,3.70
2019-03-15T07:20:28.964Z,4.17
2019-03-15T07:23:02.459Z,4.27
2019-03-15T07:25:35.884Z,4.00
2019-03-15T07:28:09.324Z,3.80
2019-03-15T07:30:42.810Z,4.23
2019-03-15T07:33:16.217Z,4.10
2019-03-15T07:35:49.643Z,4.47
2019-03-15T07:38:23.059Z,7.23
2019-03-15T07:40:56.492Z,6.93
2019-03-15T07:43:29.907Z,6.00
2019-03-15T07:46:03.349Z,4.70
2019-03-15T07:48:36.767Z,4.40
2019-03-15T07:51:10.200Z,3.60
2019-03-15T07:53:43.610Z,4.13
2019-03-15T07:56:17.132Z,3.40
2019-03-15T07:58:50.539Z,4.40
2019-03-15T08:01:23.968Z,3.80
2019-03-15T08:03:57.394Z,3.40
2019-03-15T08:06:35.152Z,3.57
2019-03-15T08:09:07.111Z,3.40
2019-03-15T08:11:40.587Z,3.00
2019-03-15T08:14:13.994Z,3.20
2019-03-15T08:16:48.087Z,3.73
2019-03-15T08:19:21.522Z,3.97
2019-03-15T08:21:56.607Z,3.03
2019-03-15T08:24:30.079Z,2.70
2019-03-15T08:27:03.503Z,2.43
2019-03-15T08:29:36.927Z,2.67
2019-03-15T08:32:10.415Z,2.27
2019-03-15T08:34:43.851Z,2.70
2019-03-15T08:37:17.276Z,2.30
2019-03-15T08:39:50.697Z,2.70
2019-03-15T08:42:24.125Z,3.37
2019-03-15T08:44:57.537Z,5.47
2019-03-15T08:47:30.968Z,2.47
2019-03-15T08:50:07.145Z,2.40
2019-03-15T08:52:42.111Z,3.37
2019-03-15T08:55:15.815Z,2.70
2019-03-15T08:57:49.238Z,2.90
2019-03-15T09:00:22.662Z,2.80
2019-03-15T09:02:56.081Z,2.63
2019-03-15T09:05:29.508Z,2.30
2019-03-15T09:08:03.013Z,2.67
2019-03-15T09:10:36.426Z,2.40
2019-03-15T09:13:09.844Z,2.17
2019-03-15T09:15:43.261Z,2.07
2019-03-15T09:18:16.685Z,1.83
2019-03-15T09:20:50.120Z,1.67
2019-03-15T09:23:23.604Z,1.93
2019-03-15T09:25:57.045Z,1.70
2019-03-15T09:28:30.441Z,1.73
2019-03-15T09:31:07.338Z,1.47
2019-03-15T09:33:39.077Z,1.90
2019-03-15T09:36:12.506Z,1.50
2019-03-15T09:38:45.921Z,1.60
2019-03-15T09:41:31.158Z,2.17
2019-03-15T09:43:54.488Z,1.70
2019-03-15T09:46:27.908Z,2.30
2019-03-15T09:49:01.320Z,1.60
2019-03-15T09:51:34.752Z,2.17
2019-03-15T09:54:08.166Z,1.63
2019-03-15T09:56:41.590Z,1.60
2019-03-15T09:59:15.071Z,1.37
2019-03-15T10:01:48.531Z,1.30
2019-03-15T10:04:21.952Z,1.40
2019-03-15T10:06:55.406Z,1.40
2019-03-15T10:09:28.816Z,1.60
2019-03-15T10:12:02.924Z,1.10
2019-03-15T10:14:36.360Z,1.33
2019-03-15T10:17:09.800Z,1.03
2019-03-15T10:19:43.221Z,1.20
2019-03-15T10:22:16.652Z,1.00
2019-03-15T10:24:50.084Z,1.00
2019-03-15T10:27:23.511Z,1.10
2019-03-15T10:29:56.929Z,1.27
2019-03-15T10:32:30.346Z,1.10
2019-03-15T10:35:04.498Z,1.30
2019-03-15T10:37:37.930Z,1.20
2019-03-15T10:40:24.510Z,1.40
2019-03-15T10:42:58.011Z,1.20
2019-03-15T10:45:31.428Z,1.30
2019-03-15T10:48:07.964Z,1.00
2019-03-15T10:50:40.164Z,1.13
2019-03-15T10:53:13.595Z,1.33
2019-03-15T10:55:59.226Z,2.90
2019-03-15T10:58:22.160Z,1.20
2019-03-15T11:00:55.581Z,1.27
2019-03-15T11:03:29.030Z,1.10
2019-03-15T11:06:02.504Z,1.20
2019-03-15T11:08:35.984Z,1.10
2019-03-15T11:11:09.430Z,1.10
2019-03-15T11:13:42.863Z,1.20
2019-03-15T11:16:16.280Z,1.10
2019-03-15T11:18:49.703Z,1.10
2019-03-15T11:21:23.115Z,0.90
2019-03-15T11:23:56.539Z,1.10
2019-03-15T11:26:30.003Z,1.17
2019-03-15T11:29:03.429Z,1.10
2019-03-15T11:31:36.852Z,0.90
2019-03-15T11:34:10.292Z,0.90
2019-03-15T11:36:43.699Z,0.80
2019-03-15T11:39:17.137Z,0.67
2019-03-15T11:41:50.552Z,0.90
2019-03-15T11:44:23.987Z,0.80
2019-03-15T11:46:57.421Z,0.70
2019-03-15T11:49:30.932Z,0.80
2019-03-15T11:52:04.483Z,0.60
2019-03-15T11:54:37.916Z,0.70
2019-03-15T11:57:11.355Z,0.73
2019-03-15T11:59:44.766Z,0.80
2019-03-15T12:02:18.211Z,0.70
2019-03-15T12:04:51.659Z,0.70
2019-03-15T12:07:25.093Z,0.60
2019-03-15T12:09:58.505Z,0.70
2019-03-15T12:12:32.044Z,0.90
2019-03-15T12:15:08.874Z,0.60
2019-03-15T12:17:42.300Z,0.70
2019-03-15T12:20:15.796Z,0.80
2019-03-15T12:22:49.293Z,0.70
2019-03-15T12:25:22.711Z,1.00
2019-03-15T12:27:56.159Z,0.80
2019-03-15T12:30:29.666Z,0.90
2019-03-15T12:33:03.206Z,0.90
2019-03-15T12:35:36.622Z,0.77
2019-03-15T12:38:10.054Z,0.90
2019-03-15T12:40:43.467Z,1.00
2019-03-15T12:43:16.900Z,0.90
2019-03-15T12:45:50.306Z,1.10
2019-03-15T12:48:23.746Z,0.83
2019-03-15T12:50:57.170Z,0.90
2019-03-15T12:53:30.595Z,1.00
2019-03-15T12:56:04.017Z,1.10
2019-03-15T12:58:37.476Z,1.00
2019-03-15T13:01:10.903Z,1.17
2019-03-15T13:03:44.346Z,1.10
2019-03-15T13:06:17.842Z,1.00
2019-03-15T13:08:51.282Z,1.10
2019-03-15T13:11:24.692Z,1.00
2019-03-15T13:13:58.124Z,1.00
2019-03-15T13:16:31.583Z,1.20
2019-03-15T13:19:05.084Z,4.37
2019-03-15T13:21:38.520Z,13.13
2019-03-15T13:24:11.947Z,1.80
2019-03-15T13:26:45.364Z,1.10
2019-03-15T13:29:18.796Z,1.10
2019-03-15T13:31:52.222Z,1.20
2019-03-15T13:34:25.652Z,1.00
2019-03-15T13:36:59.068Z,1.07
2019-03-15T13:39:32.503Z,1.00
2019-03-15T13:42:05.935Z,1.13
2019-03-15T13:44:39.363Z,0.90
2019-03-15T13:47:12.792Z,0.73
2019-03-15T13:49:46.215Z,0.80
2019-03-15T13:52:19.659Z,1.00
2019-03-15T13:54:53.087Z,0.90
2019-03-15T13:57:26.504Z,0.70
2019-03-15T13:59:59.939Z,1.10
2019-03-15T14:02:33.355Z,0.80
2019-03-15T14:05:07.024Z,0.80
2019-03-15T14:07:40.455Z,5.00
2019-03-15T14:10:15.108Z,0.80
2019-03-15T14:12:48.533Z,0.83
2019-03-15T14:15:22.015Z,0.80
2019-03-15T14:17:55.463Z,0.70
2019-03-15T14:20:28.891Z,0.80
2019-03-15T14:23:03.851Z,0.60
2019-03-15T14:25:37.278Z,0.70
2019-03-15T14:28:10.736Z,0.70
2019-03-15T14:30:44.198Z,0.80
2019-03-15T14:33:17.765Z,0.80
2019-03-15T14:35:51.211Z,0.97
2019-03-15T14:38:24.634Z,1.80
2019-03-15T14:40:58.254Z,1.20
2019-03-15T14:43:32.002Z,0.77
2019-03-15T14:46:05.759Z,0.60
2019-03-15T14:48:39.455Z,1.00
2019-03-15T14:51:12.888Z,0.80
2019-03-15T14:53:46.319Z,0.80
2019-03-15T14:56:19.746Z,0.93
2019-03-15T14:58:53.166Z,0.70
2019-03-15T15:01:26.586Z,0.80
2019-03-15T15:04:00.087Z,0.63
2019-03-15T15:06:33.563Z,0.80
2019-03-15T15:09:07.438Z,0.90
2019-03-15T15:11:40.858Z,0.90
2019-03-15T15:14:14.295Z,0.70
2019-03-15T15:16:47.699Z,0.70
2019-03-15T15:19:21.133Z,0.73
2019-03-15T15:21:54.550Z,0.70
2019-03-15T15:24:27.979Z,0.80
2019-03-15T15:27:01.387Z,0.80
2019-03-15T15:29:34.842Z,1.00
2019-03-15T15:32:08.253Z,0.83
2019-03-15T15:34:41.667Z,0.73
2019-03-15T15:37:15.083Z,0.90
2019-03-15T15:39:48.511Z,0.87
2019-03-15T15:42:21.928Z,0.70
2019-03-15T15:44:55.353Z,1.07
2019-03-15T15:47:28.780Z,0.80
2019-03-15T15:50:02.267Z,0.70
2019-03-15T15:52:35.683Z,0.90
2019-03-15T15:55:14.319Z,0.93
2019-03-15T15:57:47.729Z,0.80
2019-03-15T16:00:21.172Z,0.90
2019-03-15T16:02:54.587Z,0.90
2019-03-15T16:05:28.012Z,0.60
2019-03-15T16:08:01.429Z,0.80
2019-03-15T16:10:34.927Z,0.80
2019-03-15T16:13:17.263Z,1.00
2019-03-15T16:15:44.046Z,0.80
2019-03-15T16:18:17.480Z,0.90
2019-03-15T16:20:50.891Z,0.90
2019-03-15T16:23:24.306Z,0.97
2019-03-15T16:25:57.740Z,0.83
2019-03-15T16:28:34.573Z,1.00
2019-03-15T16:31:06.311Z,0.80
2019-03-15T16:33:39.740Z,0.90
2019-03-15T16:36:13.159Z,0.73
2019-03-15T16:38:46.579Z,0.90
2019-03-15T16:41:20.003Z,1.10
2019-03-15T16:43:53.430Z,0.90
2019-03-15T16:46:26.863Z,0.73
2019-03-15T16:49:00.271Z,0.93
2019-03-15T16:51:33.696Z,1.00
2019-03-15T16:54:07.112Z,1.00
2019-03-15T16:56:40.546Z,1.00
2019-03-15T16:59:13.979Z,0.90
2019-03-15T17:01:47.411Z,0.83
2019-03-15T17:04:20.822Z,0.90
2019-03-15T17:06:54.291Z,0.77
2019-03-15T17:09:27.756Z,0.90
2019-03-15T17:12:01.183Z,0.90
2019-03-15T17:14:34.592Z,0.80
2019-03-15T17:17:08.035Z,0.97
2019-03-15T17:19:41.452Z,0.80
2019-03-15T17:22:14.890Z,1.00
2019-03-15T17:24:48.311Z,0.70
2019-03-15T17:27:21.734Z,0.80
2019-03-15T17:29:55.158Z,0.80
2019-03-15T17:32:28.575Z,0.80
2019-03-15T17:35:02.023Z,0.80
2019-03-15T17:37:35.502Z,0.80
2019-03-15T17:40:11.591Z,0.80
2019-03-15T17:42:45.015Z,0.70
2019-03-15T17:45:18.520Z,0.80
2019-03-15T17:47:51.935Z,0.93
2019-03-15T17:50:27.276Z,0.70
2019-03-15T17:53:00.692Z,0.80
2019-03-15T17:55:34.119Z,0.80
2019-03-15T17:58:07.532Z,0.90
2019-03-15T18:00:48.439Z,0.93
2019-03-15T18:03:22.330Z,0.80
2019-03-15T18:05:55.760Z,0.90
2019-03-15T18:08:29.180Z,0.90
2019-03-15T18:11:02.618Z,1.00
2019-03-15T18:13:36.030Z,0.90
2019-03-15T18:16:09.467Z,0.80
2019-03-15T18:18:42.870Z,0.80
2019-03-15T18:21:16.310Z,0.90
2019-03-15T18:23:49.719Z,1.00
2019-03-15T18:26:23.152Z,0.80
2019-03-15T18:28:56.559Z,0.90
2019-03-15T18:31:29.991Z,0.90
2019-03-15T18:34:03.480Z,1.00
2019-03-15T18:36:36.910Z,0.90
2019-03-15T18:39:10.320Z,0.90
2019-03-15T18:41:43.780Z,1.00
2019-03-15T18:44:18.895Z,0.90
2019-03-15T18:46:52.349Z,1.00
2019-03-15T18:49:25.828Z,1.00
2019-03-15T18:51:59.248Z,1.00
2019-03-15T18:54:32.671Z,1.10
2019-03-15T18:57:06.167Z,1.20
2019-03-15T18:59:40.546Z,0.93
2019-03-15T19:02:14.102Z,1.30
2019-03-15T19:04:47.511Z,1.00
2019-03-15T19:07:20.953Z,1.20
2019-03-15T19:09:54.380Z,1.17
2019-03-15T19:12:27.814Z,1.10
2019-03-15T19:15:01.219Z,1.20
2019-03-15T19:17:34.651Z,1.20
2019-03-15T19:20:10.971Z,1.17
2019-03-15T19:22:44.479Z,1.00
2019-03-15T19:25:17.903Z,1.30
2019-03-15T19:27:51.330Z,1.10
2019-03-15T19:30:25.596Z,1.00
2019-03-15T19:32:59.022Z,1.30
2019-03-15T19:35:32.437Z,1.00
2019-03-15T19:38:05.868Z,1.20
2019-03-15T19:40:39.287Z,1.80
2019-03-15T19:43:12.721Z,1.50
2019-03-15T19:45:46.134Z,1.27
2019-03-15T19:48:19.576Z,1.10
2019-03-15T19:50:52.975Z,1.13
2019-03-15T19:53:26.399Z,1.10
2019-03-15T19:55:59.811Z,1.00
2019-03-15T19:58:33.243Z,1.10
2019-03-15T20:01:06.651Z,0.80
2019-03-15T20:03:44.303Z,1.00
2019-03-15T20:06:15.326Z,1.07
2019-03-15T20:08:48.739Z,0.90
2019-03-15T20:11:22.147Z,1.07
2019-03-15T20:13:55.575Z,1.00
2019-03-15T20:16:28.987Z,0.97
2019-03-15T20:19:02.436Z,1.03
2019-03-15T20:21:35.849Z,0.87
2019-03-15T20:24:09.283Z,1.30
2019-03-15T20:26:42.704Z,0.90
2019-03-15T20:29:16.136Z,0.80
2019-03-15T20:31:49.542Z,0.73
2019-03-15T20:34:22.982Z,0.90
2019-03-15T20:36:56.424Z,0.80
2019-03-15T20:39:29.844Z,0.82
2019-03-15T20:42:03.279Z,1.00
2019-03-15T20:44:36.691Z,0.90
2019-03-15T20:47:10.132Z,1.00
2019-03-15T20:49:43.551Z,0.80
2019-03-15T20:52:17.052Z,1.13
2019-03-15T20:54:50.458Z,0.90
2019-03-15T20:57:23.896Z,0.87
2019-03-15T20:59:57.381Z,0.90
2019-03-15T21:02:30.813Z,1.00
2019-03-15T21:05:07.785Z,0.97
2019-03-15T21:07:39.751Z,0.80
2019-03-15T21:10:17.891Z,0.80
2019-03-15T21:12:51.315Z,0.90
2019-03-15T21:15:24.731Z,1.00
2019-03-15T21:17:58.237Z,0.90
2019-03-15T21:20:31.729Z,0.60
2019-03-15T21:23:05.155Z,0.70
2019-03-15T21:25:38.572Z,0.70
2019-03-15T21:28:12.003Z,0.90
2019-03-15T21:30:48.781Z,0.60
2019-03-15T21:33:20.581Z,0.70
2019-03-15T21:35:54.124Z,0.60
2019-03-15T21:38:27.555Z,0.70
2019-03-15T21:41:01.010Z,0.70
2019-03-15T21:43:34.435Z,0.67
2019-03-15T21:46:07.848Z,0.80
2019-03-15T21:48:41.283Z,0.67
2019-03-15T21:51:14.703Z,0.53
2019-03-15T21:53:48.128Z,0.70
2019-03-15T21:56:21.544Z,0.70
2019-03-15T21:58:55.066Z,0.47
2019-03-15T22:01:28.485Z,0.90
2019-03-15T22:04:01.911Z,3.03
2019-03-15T22:06:35.318Z,1.50
2019-03-15T22:09:08.747Z,1.03
2019-03-15T22:11:42.168Z,2.07
2019-03-15T22:14:15.608Z,1.90
2019-03-15T22:16:49.031Z,0.60
2019-03-15T22:19:22.464Z,0.73
2019-03-15T22:21:55.888Z,0.63
2019-03-15T22:24:29.319Z,0.73
2019-03-15T22:27:02.735Z,0.80
2019-03-15T22:29:36.168Z,0.53
2019-03-15T22:32:09.583Z,0.60
2019-03-15T22:34:43.009Z,0.60
2019-03-15T22:37:16.423Z,0.70
2019-03-15T22:39:49.862Z,0.50
2019-03-15T22:42:23.273Z,0.60
2019-03-15T22:44:56.700Z,0.70
2019-03-15T22:47:30.118Z,0.70
2019-03-15T22:50:04.319Z,0.80
2019-03-15T22:52:37.739Z,0.60
2019-03-15T22:55:11.685Z,0.60
2019-03-15T22:57:54.890Z,0.60
2019-03-15T23:00:22.291Z,0.50
2019-03-15T23:02:55.811Z,0.60
2019-03-15T23:05:29.411Z,0.70
2019-03-15T23:08:02.833Z,0.70
2019-03-15T23:10:36.350Z,0.60
2019-03-15T23:13:10.139Z,0.70
2019-03-15T23:15:43.567Z,0.70
2019-03-15T23:18:16.988Z,0.60
2019-03-15T23:20:50.428Z,0.60
2019-03-15T23:23:24.411Z,0.60
2019-03-15T23:25:57.947Z,0.60
2019-03-15T23:28:31.390Z,0.60
2019-03-15T23:31:04.877Z,0.60
2019-03-15T23:33:38.309Z,0.60
2019-03-15T23:36:11.728Z,0.60
2019-03-15T23:38:45.169Z,0.63
2019-03-15T23:41:18.584Z,0.60
2019-03-15T23:43:52.003Z,1.10
2019-03-15T23:46:25.455Z,1.30
2019-03-15T23:48:58.902Z,0.97
2019-03-15T23:51:32.319Z,1.60
2019-03-15T23:54:05.743Z,1.50
2019-03-15T23:56:39.164Z,1.60
2019-03-15T23:59:12.598Z,1.00
